createdAt,value
2017-11-03T00:00:38.582Z,24.67
2017-11-03T00:03:06.819Z,23.60
2017-11-03T00:05:34.299Z,24.10
2017-11-03T00:08:01.762Z,24.53
2017-11-03T00:10:29.234Z,23.20
2017-11-03T00:12:57.458Z,24.57
2017-11-03T00:15:24.931Z,26.00
2017-11-03T00:17:52.398Z,26.50
2017-11-03T00:20:19.866Z,42.07
2017-11-03T00:22:47.329Z,31.27
2017-11-03T00:25:15.590Z,29.40
2017-11-03T00:27:43.055Z,30.85
2017-11-03T00:30:10.526Z,27.83
2017-11-03T00:32:38.758Z,22.50
2017-11-03T00:35:06.334Z,22.53
2017-11-03T00:37:33.896Z,22.70
2017-11-03T00:40:01.454Z,22.80
2017-11-03T00:42:28.927Z,23.33
2017-11-03T00:44:56.378Z,21.80
2017-11-03T00:47:23.843Z,23.30
2017-11-03T00:49:52.098Z,19.80
2017-11-03T00:52:21.071Z,21.40
2017-11-03T00:54:48.526Z,23.73
2017-11-03T00:57:16.102Z,21.77
2017-11-03T00:59:43.563Z,21.70
2017-11-03T01:02:11.036Z,19.30
2017-11-03T01:04:39.298Z,22.60
2017-11-03T01:07:06.777Z,22.52
2017-11-03T01:09:35.022Z,21.57
2017-11-03T01:12:03.267Z,23.30
2017-11-03T01:14:30.774Z,23.57
2017-11-03T01:16:58.242Z,22.43
2017-11-03T01:19:26.481Z,24.10
2017-11-03T01:21:53.956Z,23.60
2017-11-03T01:24:21.432Z,23.13
2017-11-03T01:26:49.785Z,24.03
2017-11-03T01:29:17.259Z,24.07
2017-11-03T01:31:44.718Z,22.43
2017-11-03T01:34:12.964Z,22.87
2017-11-03T01:36:40.546Z,24.10
2017-11-03T01:39:08.092Z,23.25
2017-11-03T01:41:35.551Z,22.10
2017-11-03T01:44:03.027Z,21.45
2017-11-03T01:46:30.490Z,23.47
2017-11-03T01:48:58.728Z,23.13
2017-11-03T01:51:26.208Z,24.97
2017-11-03T01:53:53.758Z,24.03
2017-11-03T01:56:21.324Z,23.60
2017-11-03T01:58:48.793Z,23.85
2017-11-03T02:01:17.021Z,25.47
2017-11-03T02:03:44.490Z,26.30
2017-11-03T02:06:11.963Z,22.67
2017-11-03T02:08:39.530Z,22.70
2017-11-03T02:11:07.765Z,23.00
2017-11-03T02:13:35.233Z,24.00
2017-11-03T02:16:02.818Z,23.33
2017-11-03T02:18:30.294Z,23.00
2017-11-03T02:20:58.519Z,23.70
2017-11-03T02:23:26.113Z,24.17
2017-11-03T02:25:53.670Z,24.75
2017-11-03T02:28:21.226Z,22.97
2017-11-03T02:30:48.787Z,24.42
2017-11-03T02:33:16.258Z,25.85
2017-11-03T02:35:44.487Z,26.37
2017-11-03T02:38:11.988Z,24.50
2017-11-03T02:40:39.450Z,25.47
2017-11-03T02:43:07.675Z,26.62
2017-11-03T02:45:35.146Z,25.92
2017-11-03T02:48:02.610Z,25.85
2017-11-03T02:50:30.092Z,26.92
2017-11-03T02:52:57.626Z,26.77
2017-11-03T02:55:25.191Z,23.97
2017-11-03T02:57:52.650Z,26.80
2017-11-03T03:00:20.202Z,25.77
2017-11-03T03:02:47.670Z,27.27
2017-11-03T03:05:15.140Z,27.52
2017-11-03T03:07:43.373Z,26.20
2017-11-03T03:10:10.951Z,28.92
2017-11-03T03:12:38.419Z,26.48
2017-11-03T03:15:05.897Z,28.02
2017-11-03T03:17:34.127Z,25.48
2017-11-03T03:20:01.595Z,27.20
2017-11-03T03:22:30.015Z,26.60
2017-11-03T03:24:57.530Z,26.30
2017-11-03T03:27:24.993Z,25.67
2017-11-03T03:29:52.454Z,27.33
2017-11-03T03:32:19.918Z,28.55
2017-11-03T03:34:47.388Z,31.42
2017-11-03T03:37:15.622Z,28.12
2017-11-03T03:39:43.199Z,30.10
2017-11-03T03:42:10.757Z,28.25
2017-11-03T03:44:38.314Z,28.75
2017-11-03T03:47:05.875Z,27.27
2017-11-03T03:49:33.338Z,25.55
2017-11-03T03:52:00.810Z,27.80
2017-11-03T03:54:29.041Z,29.27
2017-11-03T03:56:56.572Z,29.65
2017-11-03T03:59:24.031Z,30.17
2017-11-03T04:01:51.498Z,27.53
2017-11-03T04:04:18.963Z,26.90
2017-11-03T04:06:46.431Z,27.10
2017-11-03T04:09:13.887Z,28.13
2017-11-03T04:11:41.358Z,25.55
2017-11-03T04:14:08.816Z,26.23
2017-11-03T04:16:36.295Z,26.60
2017-11-03T04:19:03.754Z,30.02
2017-11-03T04:21:32.005Z,27.00
2017-11-03T04:23:59.470Z,27.55
2017-11-03T04:26:26.939Z,29.33
2017-11-03T04:28:55.167Z,27.52
2017-11-03T04:31:22.701Z,29.95
2017-11-03T04:33:50.897Z,31.33
2017-11-03T04:36:18.358Z,29.92
2017-11-03T04:38:45.840Z,31.17
2017-11-03T04:41:13.306Z,31.60
2017-11-03T04:43:40.785Z,33.05
2017-11-03T04:46:09.008Z,32.05
2017-11-03T04:48:36.494Z,29.15
2017-11-03T04:51:03.954Z,28.42
2017-11-03T04:53:31.426Z,29.00
2017-11-03T04:55:59.689Z,28.02
2017-11-03T04:58:27.154Z,28.05
2017-11-03T05:00:55.389Z,27.95
2017-11-03T05:03:22.976Z,27.95
2017-11-03T05:05:50.533Z,29.12
2017-11-03T05:08:18.003Z,28.58
2017-11-03T05:10:46.246Z,28.77
2017-11-03T05:13:13.713Z,27.25
2017-11-03T05:15:41.278Z,28.77
2017-11-03T05:18:10.262Z,30.25
2017-11-03T05:20:37.738Z,29.95
2017-11-03T05:23:05.201Z,30.70
2017-11-03T05:25:33.429Z,28.43
2017-11-03T05:28:00.900Z,31.62
2017-11-03T05:30:28.357Z,32.28
2017-11-03T05:32:55.839Z,32.10
2017-11-03T05:35:24.809Z,34.42
2017-11-03T05:37:52.275Z,34.42
2017-11-03T05:40:19.750Z,34.92
2017-11-03T05:42:47.983Z,32.70
2017-11-03T05:45:15.464Z,34.95
2017-11-03T05:47:42.918Z,35.30
2017-11-03T05:50:10.391Z,34.03
2017-11-03T05:52:37.859Z,36.33
2017-11-03T05:55:06.124Z,35.58
2017-11-03T05:57:33.587Z,35.88
2017-11-03T06:00:01.052Z,36.83
2017-11-03T06:02:29.279Z,37.20
2017-11-03T06:04:56.742Z,34.53
2017-11-03T06:07:24.198Z,35.15
2017-11-03T06:09:51.658Z,32.75
2017-11-03T06:12:19.123Z,32.05
2017-11-03T06:14:46.604Z,30.50
2017-11-03T06:17:14.059Z,31.10
2017-11-03T06:19:41.530Z,31.00
2017-11-03T06:22:09.763Z,28.65
2017-11-03T06:24:37.226Z,24.17
2017-11-03T06:27:04.678Z,29.63
2017-11-03T06:29:32.149Z,28.50
2017-11-03T06:31:59.690Z,28.20
2017-11-03T06:34:27.160Z,30.50
2017-11-03T06:36:54.626Z,29.35
2017-11-03T06:39:22.096Z,30.20
2017-11-03T06:41:50.322Z,32.28
2017-11-03T06:44:17.792Z,28.62
2017-11-03T06:46:45.264Z,30.25
2017-11-03T06:49:12.830Z,29.48
2017-11-03T06:51:40.306Z,27.85
2017-11-03T06:54:08.534Z,32.77
2017-11-03T06:56:35.998Z,30.15
2017-11-03T06:59:03.461Z,30.30
2017-11-03T07:01:30.923Z,29.67
2017-11-03T07:03:58.386Z,28.62
2017-11-03T07:06:25.854Z,30.58
2017-11-03T07:08:53.399Z,33.10
2017-11-03T07:11:20.961Z,29.52
2017-11-03T07:13:48.426Z,29.33
2017-11-03T07:16:15.890Z,26.80
2017-11-03T07:18:44.130Z,28.35
2017-11-03T07:21:11.594Z,24.70
2017-11-03T07:23:39.165Z,25.63
2017-11-03T07:26:06.642Z,28.52
2017-11-03T07:28:34.103Z,28.90
2017-11-03T07:31:02.348Z,29.60
2017-11-03T07:33:29.802Z,28.90
2017-11-03T07:35:57.305Z,28.90
2017-11-03T07:38:24.770Z,28.97
2017-11-03T07:40:52.250Z,28.45
2017-11-03T07:43:19.722Z,29.83
2017-11-03T07:45:47.188Z,21.30
2017-11-03T07:48:14.755Z,26.13
2017-11-03T07:50:42.211Z,27.50
2017-11-03T07:53:09.690Z,24.77
2017-11-03T07:55:37.952Z,28.05
2017-11-03T07:58:05.426Z,27.97
2017-11-03T08:00:33.674Z,29.25
2017-11-03T08:03:01.152Z,30.45
2017-11-03T08:05:28.608Z,31.10
2017-11-03T08:07:56.839Z,29.70
2017-11-03T08:10:24.307Z,29.00
2017-11-03T08:12:51.779Z,28.77
2017-11-03T08:15:19.252Z,27.07
2017-11-03T08:17:46.789Z,29.00
2017-11-03T08:20:14.362Z,28.63
2017-11-03T08:22:41.831Z,28.33
2017-11-03T08:25:09.288Z,28.40
2017-11-03T08:27:36.750Z,27.80
2017-11-03T08:30:05.011Z,29.47
2017-11-03T08:32:32.570Z,37.03
2017-11-03T08:35:00.035Z,31.20
2017-11-03T08:37:27.490Z,26.10
2017-11-03T08:39:54.956Z,27.90
2017-11-03T08:42:23.192Z,28.70
2017-11-03T08:44:50.770Z,33.17
2017-11-03T08:47:18.238Z,29.93
2017-11-03T08:49:45.788Z,28.10
2017-11-03T08:52:14.753Z,31.80
2017-11-03T08:54:42.234Z,31.90
2017-11-03T08:57:09.707Z,32.38
2017-11-03T08:59:37.174Z,32.00
2017-11-03T09:02:05.402Z,30.80
2017-11-03T09:04:32.981Z,30.50
2017-11-03T09:07:01.203Z,29.33
2017-11-03T09:09:28.719Z,28.83
2017-11-03T09:11:56.183Z,28.55
2017-11-03T09:14:24.432Z,32.00
2017-11-03T09:16:51.891Z,32.77
2017-11-03T09:19:19.372Z,32.13
2017-11-03T09:21:46.834Z,30.93
2017-11-03T09:24:14.303Z,31.33
2017-11-03T09:26:42.542Z,34.38
2017-11-03T09:29:10.011Z,31.15
2017-11-03T09:31:37.481Z,34.60
2017-11-03T09:34:05.728Z,31.95
2017-11-03T09:36:33.191Z,32.60
2017-11-03T09:39:00.650Z,35.27
2017-11-03T09:41:28.127Z,34.93
2017-11-03T09:43:55.579Z,33.10
2017-11-03T09:46:23.132Z,31.97
2017-11-03T09:48:50.606Z,30.23
2017-11-03T09:51:18.841Z,33.80
2017-11-03T09:53:46.314Z,33.50
2017-11-03T09:56:13.794Z,31.70
2017-11-03T09:58:42.024Z,33.40
2017-11-03T10:01:09.481Z,32.43
2017-11-03T10:03:36.946Z,32.30
2017-11-03T10:06:04.535Z,32.23
2017-11-03T10:08:31.993Z,33.60
2017-11-03T10:10:59.458Z,33.33
2017-11-03T10:13:27.690Z,31.33
2017-11-03T10:15:55.159Z,33.70
2017-11-03T10:18:22.619Z,30.87
2017-11-03T10:20:50.107Z,33.17
2017-11-03T10:23:18.335Z,34.73
2017-11-03T10:25:45.798Z,31.00
2017-11-03T10:28:13.261Z,32.30
2017-11-03T10:30:40.724Z,30.77
2017-11-03T10:33:08.198Z,32.67
2017-11-03T10:35:35.657Z,34.50
2017-11-03T10:38:03.899Z,32.60
2017-11-03T10:40:31.359Z,32.23
2017-11-03T10:42:58.840Z,32.57
2017-11-03T10:45:26.422Z,31.20
2017-11-03T10:47:53.946Z,33.67
2017-11-03T10:50:21.410Z,33.03
2017-11-03T10:52:48.870Z,32.37
2017-11-03T10:55:16.339Z,31.87
2017-11-03T10:57:44.577Z,31.27
2017-11-03T11:00:12.040Z,30.23
2017-11-03T11:02:39.511Z,28.00
2017-11-03T11:05:06.962Z,28.00
2017-11-03T11:07:34.625Z,27.37
2017-11-03T11:10:02.111Z,30.10
2017-11-03T11:12:30.355Z,27.60
2017-11-03T11:14:57.811Z,27.37
2017-11-03T11:17:25.278Z,28.60
2017-11-03T11:19:52.822Z,29.67
2017-11-03T11:22:20.280Z,34.77
2017-11-03T11:24:48.558Z,32.78
2017-11-03T11:27:16.022Z,29.87
2017-11-03T11:29:43.492Z,28.73
2017-11-03T11:32:10.944Z,29.23
2017-11-03T11:34:38.411Z,27.20
2017-11-03T11:37:06.645Z,28.77
2017-11-03T11:39:34.107Z,24.67
2017-11-03T11:42:01.570Z,30.07
2017-11-03T11:44:29.042Z,28.17
2017-11-03T11:46:56.522Z,27.57
2017-11-03T11:49:24.758Z,27.60
2017-11-03T11:51:52.216Z,27.53
2017-11-03T11:54:19.679Z,28.60
2017-11-03T11:56:47.138Z,28.47
2017-11-03T11:59:14.602Z,27.87
2017-11-03T12:01:42.058Z,27.97
2017-11-03T12:04:09.607Z,28.10
2017-11-03T12:06:37.071Z,28.67
2017-11-03T12:09:04.626Z,27.73
2017-11-03T12:11:32.091Z,28.57
2017-11-03T12:13:59.550Z,27.17
2017-11-03T12:16:27.814Z,27.80
2017-11-03T12:18:55.276Z,26.67
2017-11-03T12:21:22.834Z,27.87
2017-11-03T12:23:50.302Z,27.50
2017-11-03T12:26:17.758Z,25.10
2017-11-03T12:28:45.309Z,26.83
2017-11-03T12:31:12.858Z,24.67
2017-11-03T12:33:40.327Z,23.07
2017-11-03T12:36:07.792Z,27.33
2017-11-03T12:38:36.054Z,23.97
2017-11-03T12:41:03.518Z,25.17
2017-11-03T12:43:30.979Z,23.33
2017-11-03T12:45:58.443Z,25.07
2017-11-03T12:48:26.687Z,25.40
2017-11-03T12:50:54.156Z,22.90
2017-11-03T12:53:21.624Z,24.10
2017-11-03T12:55:49.089Z,25.40
2017-11-03T12:58:17.315Z,24.57
2017-11-03T13:00:44.800Z,23.47
2017-11-03T13:03:12.259Z,25.07
2017-11-03T13:05:39.813Z,24.00
2017-11-03T13:08:07.280Z,25.97
2017-11-03T13:10:34.746Z,25.57
2017-11-03T13:13:02.207Z,22.77
2017-11-03T13:15:30.430Z,26.10
2017-11-03T13:17:57.923Z,23.93
2017-11-03T13:20:25.387Z,26.27
2017-11-03T13:22:52.860Z,23.50
2017-11-03T13:25:21.094Z,22.50
2017-11-03T13:27:48.553Z,25.63
2017-11-03T13:30:16.017Z,22.83
2017-11-03T13:32:43.486Z,23.93
2017-11-03T13:35:10.946Z,22.43
2017-11-03T13:37:38.461Z,22.50
2017-11-03T13:40:05.914Z,21.47
2017-11-03T13:42:33.385Z,22.00
2017-11-03T13:45:00.853Z,21.90
2017-11-03T13:47:28.323Z,21.47
2017-11-03T13:49:55.782Z,20.40
2017-11-03T13:52:23.251Z,21.27
2017-11-03T13:54:51.514Z,21.50
2017-11-03T13:57:18.982Z,20.67
2017-11-03T13:59:47.220Z,22.30
2017-11-03T14:02:14.705Z,22.10
2017-11-03T14:04:42.263Z,22.40
2017-11-03T14:07:09.730Z,20.13
2017-11-03T14:09:37.978Z,21.23
2017-11-03T14:12:05.456Z,21.87
2017-11-03T14:14:32.919Z,21.87
2017-11-03T14:17:01.156Z,21.83
2017-11-03T14:19:28.623Z,19.90
2017-11-03T14:21:56.086Z,18.90
2017-11-03T14:24:23.562Z,20.40
2017-11-03T14:26:51.030Z,20.70
2017-11-03T14:29:19.264Z,20.13
2017-11-03T14:31:46.718Z,19.37
2017-11-03T14:34:14.195Z,18.80
2017-11-03T14:36:41.654Z,19.30
2017-11-03T14:39:09.215Z,18.97
2017-11-03T14:41:36.685Z,20.40
2017-11-03T14:44:04.151Z,18.87
2017-11-03T14:46:32.375Z,18.67
2017-11-03T14:48:59.842Z,18.57
2017-11-03T14:51:27.303Z,18.07
2017-11-03T14:53:54.769Z,17.93
2017-11-03T14:56:22.231Z,17.77
2017-11-03T14:58:49.700Z,19.10
2017-11-03T15:01:17.151Z,17.27
2017-11-03T15:03:44.630Z,19.80
2017-11-03T15:06:12.095Z,16.97
2017-11-03T15:08:40.434Z,18.83
2017-11-03T15:11:07.902Z,17.33
2017-11-03T15:13:35.366Z,19.10
2017-11-03T15:16:03.602Z,18.83
2017-11-03T15:18:31.059Z,17.83
2017-11-03T15:20:58.631Z,20.23
2017-11-03T15:23:26.096Z,19.30
2017-11-03T15:25:53.651Z,22.80
2017-11-03T15:28:21.115Z,22.60
2017-11-03T15:30:48.581Z,23.97
2017-11-03T15:33:16.034Z,22.30
2017-11-03T15:35:43.510Z,23.97
2017-11-03T15:38:11.743Z,22.07
2017-11-03T15:40:39.208Z,22.90
2017-11-03T15:43:06.673Z,23.93
2017-11-03T15:45:34.231Z,23.40
2017-11-03T15:48:01.686Z,23.27
2017-11-03T15:50:29.142Z,23.17
2017-11-03T15:52:56.698Z,24.80
2017-11-03T15:55:24.155Z,25.87
2017-11-03T15:57:51.630Z,23.90
2017-11-03T16:00:19.851Z,24.17
2017-11-03T16:02:47.323Z,27.53
2017-11-03T16:05:14.791Z,28.70
2017-11-03T16:07:42.272Z,29.63
2017-11-03T16:10:10.498Z,29.08
2017-11-03T16:12:37.982Z,28.40
2017-11-03T16:15:05.464Z,27.93
2017-11-03T16:17:32.918Z,30.47
2017-11-03T16:20:00.374Z,29.23
2017-11-03T16:22:27.930Z,32.40
2017-11-03T16:24:55.394Z,30.00
2017-11-03T16:27:23.648Z,31.57
2017-11-03T16:29:51.112Z,35.90
2017-11-03T16:32:18.590Z,32.38
2017-11-03T16:34:46.846Z,33.60
2017-11-03T16:37:14.402Z,34.58
2017-11-03T16:39:41.870Z,36.20
2017-11-03T16:42:10.111Z,34.57
2017-11-03T16:44:37.587Z,35.40
2017-11-03T16:47:05.066Z,34.90
2017-11-03T16:49:33.304Z,35.87
2017-11-03T16:52:00.874Z,34.73
2017-11-03T16:54:28.347Z,31.07
2017-11-03T16:56:55.905Z,34.70
2017-11-03T16:59:23.373Z,33.40
2017-11-03T17:01:51.621Z,31.95
2017-11-03T17:04:19.087Z,30.87
2017-11-03T17:06:46.558Z,32.63
2017-11-03T17:09:14.866Z,31.93
2017-11-03T17:11:42.322Z,31.43
2017-11-03T17:14:09.794Z,34.67
2017-11-03T17:16:37.257Z,29.60
2017-11-03T17:19:04.739Z,30.90
2017-11-03T17:21:32.204Z,31.00
2017-11-03T17:23:59.763Z,27.20
2017-11-03T17:26:27.997Z,30.67
2017-11-03T17:28:55.471Z,32.90
2017-11-03T17:31:22.934Z,29.03
2017-11-03T17:33:50.410Z,30.15
2017-11-03T17:36:17.872Z,30.20
2017-11-03T17:38:45.428Z,30.30
2017-11-03T17:41:14.399Z,30.80
2017-11-03T17:43:41.976Z,31.30
2017-11-03T17:46:09.454Z,32.97
2017-11-03T17:48:37.678Z,30.37
2017-11-03T17:51:05.142Z,34.37
2017-11-03T17:53:32.604Z,27.23
2017-11-03T17:56:00.081Z,26.70
2017-11-03T17:58:27.547Z,27.95
2017-11-03T18:00:55.018Z,31.45
2017-11-03T18:03:23.243Z,30.70
2017-11-03T18:05:50.818Z,29.48
2017-11-03T18:08:18.291Z,30.95
2017-11-03T18:10:45.760Z,30.10
2017-11-03T18:13:13.990Z,33.70
2017-11-03T18:15:41.513Z,37.97
2017-11-03T18:18:09.735Z,35.53
2017-11-03T18:20:37.304Z,34.28
2017-11-03T18:23:04.770Z,34.55
2017-11-03T18:25:32.378Z,31.08
2017-11-03T18:27:59.886Z,29.85
2017-11-03T18:30:27.357Z,34.13
2017-11-03T18:32:55.619Z,39.78
2017-11-03T18:35:23.213Z,41.97
2017-11-03T18:37:51.434Z,37.90
2017-11-03T18:40:19.886Z,40.15
2017-11-03T18:42:47.341Z,40.88
2017-11-03T18:45:14.814Z,43.38
2017-11-03T18:47:42.294Z,41.35
2017-11-03T18:50:09.757Z,44.80
2017-11-03T18:52:37.225Z,45.08
2017-11-03T18:55:04.766Z,48.92
2017-11-03T18:57:32.276Z,44.80
2017-11-03T18:59:59.789Z,42.58
2017-11-03T19:02:27.259Z,42.45
2017-11-03T19:04:54.710Z,51.25
2017-11-03T19:07:22.187Z,64.45
2017-11-03T19:09:50.434Z,61.03
2017-11-03T19:12:17.902Z,53.97
2017-11-03T19:14:45.362Z,55.12
2017-11-03T19:17:13.610Z,51.22
2017-11-03T19:19:41.114Z,48.58
2017-11-03T19:22:09.348Z,48.47
2017-11-03T19:24:36.854Z,48.87
2017-11-03T19:27:05.130Z,52.78
2017-11-03T19:29:32.589Z,51.47
2017-11-03T19:32:00.112Z,45.78
2017-11-03T19:34:27.562Z,52.55
2017-11-03T19:36:55.114Z,51.35
2017-11-03T19:39:22.683Z,56.63
2017-11-03T19:41:50.232Z,52.17
2017-11-03T19:44:17.699Z,47.05
2017-11-03T19:46:45.175Z,46.47
2017-11-03T19:49:13.410Z,51.67
2017-11-03T19:51:40.918Z,49.85
2017-11-03T19:54:09.162Z,47.80
2017-11-03T19:56:36.685Z,47.92
2017-11-03T19:59:05.073Z,44.92
2017-11-03T20:01:32.522Z,42.88
2017-11-03T20:04:00.040Z,40.42
2017-11-03T20:06:28.320Z,44.20
2017-11-03T20:08:56.670Z,44.08
2017-11-03T20:11:24.227Z,45.28
2017-11-03T20:13:51.690Z,47.83
2017-11-03T20:16:19.152Z,41.40
2017-11-03T20:18:46.614Z,43.67
2017-11-03T20:21:14.838Z,42.95
2017-11-03T20:23:42.303Z,42.25
2017-11-03T20:26:09.783Z,39.50
2017-11-03T20:28:37.294Z,42.10
2017-11-03T20:31:04.742Z,40.00
2017-11-03T20:33:32.203Z,39.03
2017-11-03T20:35:59.723Z,36.35
2017-11-03T20:38:27.242Z,42.35
2017-11-03T20:40:54.691Z,36.83
2017-11-03T20:43:22.186Z,39.33
2017-11-03T20:45:49.646Z,36.80
2017-11-03T20:48:17.259Z,38.20
2017-11-03T20:50:44.758Z,36.45
2017-11-03T20:53:12.246Z,38.97
2017-11-03T20:55:40.419Z,35.83
2017-11-03T20:58:07.919Z,41.63
2017-11-03T21:00:35.413Z,42.47
2017-11-03T21:03:02.871Z,44.00
2017-11-03T21:05:30.416Z,41.45
2017-11-03T21:07:57.889Z,41.10
2017-11-03T21:10:25.362Z,36.28
2017-11-03T21:12:53.641Z,36.58
2017-11-03T21:15:21.921Z,32.70
2017-11-03T21:17:50.183Z,32.45
2017-11-03T21:20:17.727Z,30.77
2017-11-03T21:22:45.325Z,30.98
2017-11-03T21:25:12.842Z,31.73
2017-11-03T21:27:40.342Z,31.15
2017-11-03T21:30:08.722Z,32.08
2017-11-03T21:32:36.234Z,31.33
2017-11-03T21:35:03.756Z,28.00
2017-11-03T21:37:31.258Z,33.03
2017-11-03T21:39:58.757Z,35.67
2017-11-03T21:42:26.261Z,34.17
2017-11-03T21:44:53.741Z,34.63
2017-11-03T21:47:21.970Z,32.97
2017-11-03T21:49:49.457Z,32.75
2017-11-03T21:52:17.061Z,34.60
2017-11-03T21:54:44.722Z,34.17
2017-11-03T21:57:12.238Z,35.50
2017-11-03T22:02:36.946Z,36.15
2017-11-03T22:05:04.472Z,37.30
2017-11-03T22:07:32.018Z,37.75
2017-11-03T22:09:59.514Z,37.47
2017-11-03T22:12:27.073Z,36.72
2017-11-03T22:14:54.531Z,34.40
2017-11-03T22:17:22.001Z,33.30
2017-11-03T22:19:49.530Z,34.20
2017-11-03T22:22:17.036Z,33.47
2017-11-03T22:24:45.251Z,33.15
2017-11-03T22:27:12.722Z,33.70
2017-11-03T22:29:40.184Z,33.40
2017-11-03T22:32:07.758Z,33.10
2017-11-03T22:34:35.218Z,32.63
2017-11-03T22:37:02.783Z,32.80
2017-11-03T22:39:30.285Z,33.80
2017-11-03T22:41:57.785Z,37.10
2017-11-03T22:44:25.282Z,31.85
2017-11-03T22:46:53.524Z,31.65
2017-11-03T22:49:20.992Z,29.33
2017-11-03T22:51:48.451Z,31.67
2017-11-03T22:54:16.036Z,30.80
2017-11-03T22:56:44.272Z,29.00
2017-11-03T22:59:11.884Z,28.70
2017-11-03T23:01:39.335Z,27.48
2017-11-03T23:04:06.853Z,32.03
2017-11-03T23:06:34.349Z,32.85
2017-11-03T23:09:02.571Z,34.08
2017-11-03T23:11:30.026Z,34.55
2017-11-03T23:13:57.596Z,37.83
2017-11-03T23:16:25.052Z,37.28
2017-11-03T23:18:52.607Z,36.95
2017-11-03T23:21:20.078Z,35.47
2017-11-03T23:23:47.530Z,33.28
2017-11-03T23:26:15.083Z,29.40
2017-11-03T23:28:42.634Z,30.83
2017-11-03T23:31:10.098Z,29.87
2017-11-03T23:33:37.551Z,28.25
2017-11-03T23:36:05.016Z,28.25
2017-11-03T23:38:32.471Z,26.00
2017-11-03T23:41:00.022Z,26.48
2017-11-03T23:43:27.482Z,28.75
2017-11-03T23:45:54.946Z,27.35
2017-11-03T23:48:22.414Z,28.30
2017-11-03T23:50:49.875Z,27.98
2017-11-03T23:53:17.327Z,29.23
2017-11-03T23:55:45.567Z,32.35
2017-11-03T23:58:13.022Z,31.00
